Airfield :
LOGIN :

Register | Disclaimer

   EN    FR    IT 

 










Legend :    VFR   Marginal VFR   IFR   Intensive IFR   Very Intensive IFR
Visi :
Ceiling :
>= 8 km
>= 3000ft
5 to 8 km
1000 to 3000 ft
1500m to 5 km
500 to 1000 ft
800 to 1500m
200 to 500 ft
< 800m
< 200 ft
Symbols :   Thunderstorms  Fog  Heavy snow  Heavy precipitations  Wind > 20 kt
SIGMETs :     Misc.  Thunderstorms  Icing  Turbulence  Mountain Waves  Volcanic Ashes






- Airport Elevation : 308 ft
- IATA code : POZ


EPPO - Poznan-Lawica

CURRENT METAR :
  • 011330Z 24004KT 9999 -RA NSC 16/15 Q1008

EXPIRED METARs :
  • 011300Z 24005KT 9999 -RA NSC 16/15 Q1009
  • 011230Z 23004KT 9999 -RA NSC 16/15 Q1009
  • 011200Z 21004KT 9999 -RA NSC 16/15 Q1009
  • 011130Z 29007KT 9999 -RA NSC 16/14 Q1009

TAF TAF EPPO
Valid from the 01 at 12:00 until the 02 at 12:00 UTC


011130Z 0112/0212 27007KT CAVOK
TEMPO 0112/0117 RA BKN014
PROB40
TEMPO 0112/0117 4000 SHRA BKN008 BKN014CB
TEMPO 0208/0212 SHRA BKN020CB



MET'MAP, your aeronautical weather chart ! - Copyright ORBIFLY December 2007 - Disclaimer

ORBIFLY MET'MAP TEAM :

Programming & Development : Alexandra Zaïnal
Concept & original design : Baudouin d'Aumeries
Assistance for programming : Marc-Olivier Méhu
Technical & hardware support : Manuel Goepfert

Contact : metmap@orbifly.com




SOURCES & CREDITS :

   NOAA